map of IUE home
IUE - Airport
Location
City:  Alofi, Niue Island, Niue
Name:Niue International Airport
Old (Alt.):Haan International Airport
ICAO:NIUE
IATA:IUE

Details
Type:Airport (Aerodrome, Airfield)
Use:International (customs port of entry)
Latitude:1904'48"S (-19.080027)
Longitude:16955'32"W (-169.925638)
Datum:WGS 1984
Elevation:209 ft (64 m)
Variation:13.12E (WMM2015v2 magnetic declination)
0.04 annual change
Runways:1
Longest:7660 × 148 ft (2335 × 45 m), paved

Time
Time Zone:UTC-11
Local Time:

Weather
METAR:NIUE 041400Z 12005KT 9999 SCT018 BKN030 BKN100 25/23 Q1006
TAF:NIUE 041105Z 0412/0512 12010KT 9999 SCT018 BKN030 PROB30
TEMPO 0418/0506 5000 SHRA BKN015

Related Locations
Nearby:
Farthest:DRZI: 12337 mi / 19854 km
Iferouane [Iferouane Airport], NE

Find:

   beyond  
but within

Other Information
Maps:
NOTAMs:
Links:
Sources:

  
  • flag of Niue
  

Sectional Chart

Flight Planning
at skyvector.com

Satellite Image

Google Maps Satellite view

 

Copyright © 2004-2019 Karl L. Swartz. All rights reserved.
The Great Circle Mapper name and logo are trademarks of the Great Circle Mapper.
All other trademarks mentioned herein belong to their respective owners.
Please see credits for attibutions and further copyright information.

  Follow gcmap on Facebook Follow gcmap on Twitter GCmap on LinkedIn

hCard Microformat

Geo Microformat